Data for 06/08/2016

Time Sea-Level Adjusted Pressure Absolute Pressure Temperature Relative Humidity Dew Point   
(mb) (inHg) (mb) (inHg) (C) (F) (%) (C) (F)
00:05 1017 30.03 846 24.98 16 60.7 63 8.9 48.1
00:10 1017 30.03 846 24.98 15.9 60.5 64 9 48.3
00:15 1017 30.03 846 24.98 15.9 60.5 61 8.4 47.2
00:20 1017 30.03 846 24.98 15.9 60.6 60 8.3 47
00:25 1017 30.03 846 24.98 15.9 60.5 61 8.4 47.1
00:30 1017 30.03 846 24.98 15.7 60.2 62 8.4 47.2
00:35 1017 30.03 846 24.98 15.7 60.2 61 8.3 46.9
00:40 1017 30.03 846 24.98 16.2 61.1 60 8.4 47.2
00:45 1017 30.03 846 24.98 16.2 61.1 60 8.5 47.3
00:50 1017 30.03 846 24.98 16 60.8 59 8.1 46.6
00:55 1017 30.03 846 24.98 16 60.7 59 7.9 46.3
01:00 1017 30.03 846 24.98 15.9 60.7 59 8 46.4
01:05 1017 30.03 846 24.98 15.8 60.4 61 8.2 46.8
01:10 1017 30.03 846 24.98 15.3 59.5 62 8 46.4
01:15 1017 30.03 846 24.98 15.5 59.8 59 7.6 45.7
01:20 1016 30 846 24.98 15.7 60.2 58 7.6 45.6
01:25 1016 30 846 24.98 15.5 59.9 61 8 46.4
01:30 1016 30 846 24.98 15.1 59.1 62 7.9 46.2
01:35 1016 30 846 24.98 14.9 58.8 61 7.6 45.7
01:40 1016 30 846 24.98 14.8 58.6 63 7.8 46.1
01:45 1016 30 845 24.95 14.7 58.4 63 7.7 45.9
01:50 1016 30 845 24.95 14.6 58.2 63 7.7 45.9
01:55 1016 30 845 24.95 14.3 57.8 64 7.7 45.9
02:00 1016 30 845 24.95 14.1 57.5 65 7.7 45.9
02:05 1016 30 845 24.95 13.9 57.1 66 7.7 45.8
02:10 1016 30 845 24.95 14 57.2 65 7.6 45.7
02:15 1016 30 845 24.95 14.1 57.4 65 7.6 45.8
02:20 1016 30 845 24.95 14 57.1 66 7.8 46.1
02:25 1016 30 845 24.95 13.9 57.1 66 7.8 46.1
02:30 1016 30 845 24.95 14 57.1 66 7.7 45.9
02:35 1016 30 846 24.98 14.2 57.5 64 7.5 45.6
02:40 1016 30 846 24.98 14.4 57.9 63 7.5 45.5
02:45 1016 30 846 24.98 14.5 58.1 62 7.4 45.3
02:50 1016 30 846 24.98 14.3 57.8 63 7.4 45.3
02:55 1016 30 846 24.98 13.9 57.1 63 7.2 44.9
03:00 1016 30 846 24.98 13.8 56.9 64 7.1 44.9
03:05 1016 30 846 24.98 13.9 56.9 63 7 44.6
03:10 1017 30.03 846 24.98 13.8 56.8 65 7.4 45.2
03:15 1017 30.03 846 24.98 13.6 56.4 66 7.5 45.5
03:20 1017 30.03 846 24.98 13.6 56.5 66 7.5 45.5
03:25 1017 30.03 846 24.98 13.7 56.7 64 7.2 44.9
03:30 1017 30.03 846 24.98 14.2 57.6 63 7.2 45
03:35 1017 30.03 846 24.98 14.3 57.8 62 7.2 44.9
03:40 1017 30.03 846 24.98 14.1 57.4 63 7.2 45
03:45 1017 30.03 846 24.98 14.1 57.3 62 6.9 44.5
03:50 1017 30.03 846 24.98 14.1 57.4 63 7.2 45
03:55 1017 30.03 846 24.98 13.8 56.8 63 7 44.6
04:00 1017 30.03 846 24.98 13.9 56.9 63 7 44.7
04:05 1017 30.03 846 24.98 13.8 56.9 64 7.2 45
04:10 1017 30.03 846 24.98 13.5 56.2 65 7 44.6
04:15 1016 30 846 24.98 13.2 55.7 67 7.2 45
04:20 1017 30.03 846 24.98 12.9 55.3 66 6.9 44.4
04:25 1017 30.03 846 24.98 13 55.3 67 7 44.6
04:30 1017 30.03 846 24.98 12.8 55.1 67 7 44.6
04:35 1017 30.03 846 24.98 12.8 55.1 67 7 44.6
04:40 1017 30.03 846 24.98 12.9 55.2 68 7.1 44.8
04:45 1017 30.03 846 24.98 12.8 55.1 67 6.8 44.3
04:50 1017 30.03 846 24.98 13.1 55.7 67 7.1 44.8
04:55 1017 30.03 846 24.98 13 55.5 67 7 44.7
05:00 1017 30.03 846 24.98 13 55.4 68 7.2 44.9
05:05 1017 30.03 846 24.98 12.7 54.8 69 7.1 44.8
05:10 1017 30.03 846 24.98 12.6 54.7 68 6.9 44.5
05:15 1017 30.03 846 24.98 12.6 54.7 68 6.9 44.4
05:20 1017 30.03 846 24.98 13 55.4 66 6.8 44.3
05:25 1017 30.03 846 24.98 13.4 56.1 64 6.7 44.1
05:30 1017 30.03 846 24.98 13.8 56.8 62 6.7 44.1
05:35 1017 30.03 846 24.98 14.1 57.3 63 7.1 44.8
05:40 1017 30.03 846 24.98 13.8 56.9 64 7.2 44.9
05:45 1017 30.03 846 24.98 13.8 56.8 65 7.3 45.2
05:50 1017 30.03 846 24.98 13.8 56.8 65 7.3 45.2
05:55 1017 30.03 846 24.98 13.9 57.1 65 7.4 45.4
06:00 1017 30.03 846 24.98 14.1 57.4 64 7.5 45.4
06:05 1017 30.03 846 24.98 14.6 58.2 63 7.7 45.8
06:10 1017 30.03 846 24.98 14.8 58.6 62 7.7 45.9
06:15 1017 30.03 846 24.98 15.1 59.3 61 7.8 46
06:20 1017 30.03 846 24.98 15.5 59.9 61 8 46.5
06:25 1017 30.03 846 24.98 15.7 60.3 60 8 46.5
06:30 1017 30.03 846 24.98 16 60.7 59 8.1 46.5
06:35 1017 30.03 846 24.98 16.2 61.2 59 8.2 46.8
06:40 1017 30.03 846 24.98 16.4 61.6 60 8.7 47.6
06:45 1017 30.03 846 24.98 16.5 61.7 59 8.6 47.4
06:50 1017 30.03 846 24.98 16.8 62.2 57 8.4 47.1
06:55 1017 30.03 846 24.98 17.1 62.8 57 8.7 47.7
07:00 1017 30.03 846 24.98 17.5 63.5 56 8.6 47.5
07:05 1017 30.03 846 24.98 18.1 64.5 54 8.6 47.5
07:10 1017 30.03 846 24.98 18.3 64.9 54 9 48.2
07:15 1017 30.03 846 24.98 18.5 65.3 54 9.1 48.3
07:20 1017 30.03 846 24.98 19 66.2 52 9 48.2
07:25 1017 30.03 846 24.98 19.9 67.8 48 8.7 47.7
07:30 1017 30.03 846 24.98 20.1 68.2 48 8.8 47.9
07:35 1017 30.03 846 24.98 20.3 68.6 46 8.3 47
07:40 1017 30.03 846 24.98 20.9 69.7 44 8.5 47.4
07:45 1017 30.03 846 24.98 21.2 70.2 44 8.7 47.6
07:50 1017 30.03 846 24.98 21.4 70.5 45 9.1 48.4
07:55 1017 30.03 846 24.98 21.6 70.9 47 9.8 49.7
08:00 1017 30.03 846 24.98 21.4 70.5 47 9.7 49.5
08:05 1017 30.03 846 24.98 22.1 71.7 46 10.2 50.4
08:10 1017 30.03 846 24.98 22.1 71.7 45 9.9 49.9
08:15 1017 30.03 846 24.98 22.4 72.3 44 9.7 49.4
08:20 1017 30.03 846 24.98 23.3 74 39 8.8 47.9
08:25 1017 30.03 846 24.98 23.6 74.4 38 8.5 47.3
08:30 1017 30.03 846 24.98 24 75.2 38 9.2 48.6
08:35 1017 30.03 846 24.98 24.5 76.1 35 8.2 46.8
08:40 1017 30.03 846 24.98 24 75.1 37 8.6 47.6
08:45 1017 30.03 846 24.98 24.6 76.3 35 8.4 47
08:50 1017 30.03 846 24.98 24.5 76.2 37 9.3 48.7
08:55 1017 30.03 846 24.98 23.9 74.9 37 8.4 47.1
09:00 1017 30.03 846 24.98 24.1 75.4 35 7.9 46.1
09:05 1017 30.03 846 24.98 25 77.1 33 7.8 46
09:10 1017 30.03 846 24.98 24.8 76.7 34 8 46.3
09:15 1017 30.03 846 24.98 24 75.2 38 9 48.1
09:20 1017 30.03 846 24.98 23.5 74.4 41 9.8 49.6
09:25 1017 30.03 846 24.98 24.1 75.4 37 8.5 47.4
09:30 1017 30.03 846 24.98 24.8 76.6 36 9.1 48.4
09:35 1017 30.03 846 24.98 24.2 75.6 41 10.2 50.4
09:40 1017 30.03 846 24.98 24.2 75.5 40 9.8 49.6
09:45 1017 30.03 846 24.98 23.7 74.7 40 9.7 49.4
09:50 1017 30.03 846 24.98 23.5 74.4 44 10.8 51.4
09:55 1016 30 846 24.98 23.5 74.2 44 10.7 51.3
10:00 1016 30 846 24.98 24.6 76.3 39 10.1 50.1
10:05 1016 30 846 24.98 25 76.9 36 9.1 48.5
10:10 1016 30 846 24.98 25.3 77.6 36 9.4 48.9
10:15 1016 30 846 24.98 25.2 77.4 36 9.5 49.1
10:20 1016 30 845 24.95 25.7 78.3 35 9.3 48.8
10:25 1016 30 845 24.95 26.3 79.3 34 9.3 48.7
10:30 1016 30 845 24.95 25.8 78.4 30 7.3 45.1
10:35 1016 30 845 24.95 25.4 77.6 30 7 44.6
10:40 1016 30 845 24.95 25.9 78.6 29 6.9 44.3
10:45 1016 30 845 24.95 26 78.8 29 6.6 43.9
10:50 1016 30 845 24.95 26.9 80.3 27 6.8 44.3
10:55 1016 30 845 24.95 27.3 81.1 26 6.2 43.2
11:00 1016 30 845 24.95 26.9 80.4 28 7.2 45
11:05 1016 30 845 24.95 26.3 79.4 25 5.3 41.5
11:10 1016 30 845 24.95 27.4 81.2 23 5 41
11:15 1016 30 845 24.95 27.9 82.3 25 6.3 43.4
11:20 1016 30 845 24.95 26.8 80.3 28 7.1 44.7
11:25 1016 30 845 24.95 26.8 80.3 27 6.3 43.3
11:30 1016 30 845 24.95 26.8 80.3 25 5.5 42
11:35 1016 30 845 24.95 27.6 81.6 23 5 41.1
11:40 1016 30 845 24.95 28.6 83.4 23 5.7 42.2
11:45 1015 29.97 845 24.95 29 84.2 22 5.2 41.3
11:50 1015 29.97 845 24.95 29.3 84.8 20 4.3 39.7
11:55 1015 29.97 845 24.95 29.8 85.6 21 5.8 42.4
12:00 1015 29.97 845 24.95 29.9 85.8 20 5.1 41.1
12:05 1015 29.97 845 24.95 30 86 18 3.6 38.5
12:10 1015 29.97 845 24.95 29.2 84.5 19 3.7 38.6
12:15 1015 29.97 844 24.92 28.8 83.8 21 4.7 40.5
12:20 1015 29.97 844 24.92 28.6 83.4 19 2.7 36.9
12:25 1015 29.97 844 24.92 29.8 85.6 19 4.3 39.8
12:30 1015 29.97 844 24.92 30.1 86.2 19 4 39.1
12:35 1015 29.97 844 24.92 29.8 85.6 20 4.6 40.3
12:40 1015 29.97 844 24.92 29.2 84.6 20 4.6 40.3
12:45 1015 29.97 844 24.92 28.6 83.4 19 2.8 37
12:50 1015 29.97 844 24.92 28.6 83.5 17 1.5 34.7
12:55 1015 29.97 844 24.92 28.4 83 17 1.6 34.8
13:00 1015 29.97 844 24.92 27.9 82.1 19 2.2 35.9
13:05 1015 29.97 844 24.92 28.1 82.6 18 1.7 35.1
13:10 1015 29.97 844 24.92 28.3 83 15 -0.3 31.4
13:15 1015 29.97 844 24.92 28.4 83.2 15 -0 32
13:20 1015 29.97 844 24.92 28.3 83 14 -1 30.1
13:25 1015 29.97 844 24.92 28.4 83 15 -0.2 31.6
13:30 1015 29.97 844 24.92 28.7 83.7 15 -0.1 31.8
13:35 1014 29.94 844 24.92 28.7 83.7 16 0.4 32.7
13:40 1014 29.94 844 24.92 28.4 83.1 17 1 33.8
13:45 1014 29.94 844 24.92 28.9 84 16 1 33.9
13:50 1014 29.94 844 24.92 29.3 84.7 15 0.7 33.2
13:55 1014 29.94 843 24.89 29.9 85.8 15 1.1 33.9
14:00 1014 29.94 843 24.89 30.3 86.5 15 1.2 34.2
14:05 1014 29.94 843 24.89 30.3 86.5 15 1.2 34.2
14:10 1014 29.94 843 24.89 31.1 88 15 1.7 35
14:15 1014 29.94 843 24.89 31.3 88.3 15 2.3 36.2
14:20 1014 29.94 843 24.89 30.8 87.5 15 1.7 35.1
14:25 1014 29.94 843 24.89 30.8 87.4 16 2.3 36.1
14:30 1014 29.94 843 24.89 29.8 85.6 17 2.6 36.6
14:35 1014 29.94 843 24.89 29.9 85.8 17 2.7 36.8
14:40 1014 29.94 843 24.89 29.7 85.4 18 3.3 37.9
14:45 1014 29.94 843 24.89 29.5 85 18 3 37.4
14:50 1014 29.94 843 24.89 30.4 86.7 16 2.3 36.1
14:55 1014 29.94 843 24.89 30.6 87 16 2.3 36.2
15:00 1014 29.94 843 24.89 30.7 87.2 15 1.8 35.2
15:05 1014 29.94 843 24.89 30.7 87.2 16 2.1 35.8
15:10 1013 29.91 843 24.89 30.5 86.9 16 1.9 35.3
15:15 1013 29.91 843 24.89 30.2 86.3 16 1.6 34.9
15:20 1013 29.91 843 24.89 30.4 86.8 16 1.8 35.3
15:25 1013 29.91 842 24.86 30.2 86.3 17 2.7 36.9
15:30 1013 29.91 842 24.86 30.4 86.7 17 3.2 37.7
15:35 1013 29.91 842 24.86 29.9 85.8 17 2.2 36
15:40 1013 29.91 842 24.86 30.1 86.1 15 1.4 34.5
15:45 1013 29.91 842 24.86 30.7 87.2 17 3 37.4
15:50 1013 29.91 842 24.86 30.4 86.7 16 1.8 35.2
15:55 1013 29.91 842 24.86 30.6 87.1 16 2.7 36.8
16:00 1013 29.91 842 24.86 30.7 87.2 15 1.2 34.2
16:05 1013 29.91 842 24.86 31.1 88 15 2.1 35.7
16:10 1012 29.88 842 24.86 31.3 88.3 16 2.5 36.5
16:15 1012 29.88 842 24.86 31.3 88.4 15 2 35.6
16:20 1012 29.88 842 24.86 31.7 89 15 1.8 35.3
16:25 1012 29.88 841 24.83 32.1 89.8 14 2.1 35.8
16:30 1012 29.88 841 24.83 32.2 89.9 14 1.9 35.4
16:35 1012 29.88 841 24.83 32 89.7 15 2.3 36.1
16:40 1012 29.88 841 24.83 32.2 89.9 14 1.7 35.1
16:45 1012 29.88 841 24.83 31 87.9 15 1.7 35.1
16:50 1012 29.88 841 24.83 31.1 88 14 1.1 34
16:55 1012 29.88 841 24.83 31.5 88.7 16 2.8 37.1
17:00 1012 29.88 841 24.83 31 87.9 15 2.2 36
17:05 1012 29.88 841 24.83 31 87.7 19 5.3 41.6
17:10 1012 29.88 841 24.83 30.5 86.8 18 4.1 39.5
17:15 1012 29.88 841 24.83 30 85.9 19 3.8 38.8
17:20 1012 29.88 841 24.83 29.9 85.8 18 3 37.3
17:25 1012 29.88 841 24.83 29.6 85.4 18 3.1 37.6
17:30 1011 29.85 841 24.83 29.4 84.9 19 3.3 38
17:35 1011 29.85 841 24.83 29.2 84.6 18 2.8 37.1
17:40 1011 29.85 841 24.83 29 84.1 19 3.4 38.2
17:45 1011 29.85 841 24.83 28.8 83.8 20 3.6 38.4
17:50 1012 29.88 841 24.83 28.6 83.6 20 3.9 39.1
17:55 1012 29.88 841 24.83 28.6 83.5 20 4 39.3
18:00 1012 29.88 841 24.83 28.5 83.4 21 4.3 39.8
18:05 1012 29.88 841 24.83 28.5 83.3 22 4.9 40.7
18:10 1012 29.88 841 24.83 28.5 83.2 24 6.3 43.3
18:15 1012 29.88 841 24.83 28.5 83.3 24 6.3 43.3
18:20 1012 29.88 841 24.83 28.4 83.1 23 5.5 42
18:25 1012 29.88 841 24.83 28.3 83 25 6.5 43.6
18:30 1013 29.91 842 24.86 28.1 82.6 23 5.4 41.6
18:35 1013 29.91 842 24.86 26.5 79.6 23 4.1 39.4
18:40 1013 29.91 842 24.86 25.3 77.5 24 3.3 37.9
18:45 1013 29.91 842 24.86 24.8 76.6 28 5.3 41.5
18:50 1013 29.91 842 24.86 24 75.2 28 4.6 40.3
18:55 1013 29.91 842 24.86 24.1 75.3 25 3 37.4
19:00 1013 29.91 842 24.86 24.8 76.7 22 1.7 35
19:05 1013 29.91 842 24.86 26 78.7 18 -0.2 31.7
19:10 1013 29.91 842 24.86 26.3 79.4 18 0.7 33.3
19:15 1013 29.91 842 24.86 26.3 79.4 18 0.7 33.2
19:20 1013 29.91 842 24.86 26 78.8 19 1 33.8
19:25 1013 29.91 842 24.86 26.2 79.2 19 1 33.8
19:30 1013 29.91 842 24.86 25.6 78 22 2.6 36.7
19:35 1013 29.91 842 24.86 24.6 76.3 25 3.6 38.4
19:40 1013 29.91 842 24.86 23.8 74.8 27 4 39.2
19:45 1012 29.88 842 24.86 23.4 74 28 4 39.2
19:50 1012 29.88 841 24.83 23.4 74.1 25 2.7 36.9
19:55 1012 29.88 841 24.83 23.8 74.9 24 2.5 36.6
20:00 1012 29.88 841 24.83 24.1 75.3 24 2.5 36.6
20:05 1012 29.88 841 24.83 24.2 75.6 23 2.2 36
20:10 1011 29.85 841 24.83 24.2 75.5 24 2.6 36.8
20:15 1011 29.85 841 24.83 24 75.2 24 2.3 36.1
20:20 1012 29.88 841 24.83 24 75.1 25 2.8 37.1
20:25 1012 29.88 841 24.83 23.8 74.8 25 2.8 37
20:30 1012 29.88 841 24.83 23.5 74.4 26 2.9 37.3
20:35 1012 29.88 841 24.83 23.5 74.3 25 2.6 36.7
20:40 1012 29.88 841 24.83 23.4 74.1 26 3 37.4
20:45 1012 29.88 841 24.83 23.1 73.5 27 3.3 37.9
20:50 1012 29.88 841 24.83 22.9 73.3 26 2.8 37.1
20:55 1012 29.88 841 24.83 23 73.4 26 2.7 36.8
21:00 1012 29.88 841 24.83 23 73.3 26 2.6 36.7
21:05 1012 29.88 841 24.83 22.8 73 26 2.3 36.2
21:10 1012 29.88 841 24.83 22.8 73.1 27 2.8 37.1
21:15 1012 29.88 841 24.83 22.7 72.8 26 2.2 36
21:20 1012 29.88 841 24.83 22.9 73.2 26 2.6 36.7
21:25 1012 29.88 841 24.83 22.8 73.1 27 3.1 37.5
21:30 1012 29.88 841 24.83 22.2 72 29 3.4 38.1
21:35 1012 29.88 841 24.83 21.9 71.5 30 3.6 38.5
21:40 1012 29.88 841 24.83 21.5 70.7 31 3.8 38.8
21:45 1011 29.85 841 24.83 21.2 70.2 31 3.8 38.8
21:50 1011 29.85 841 24.83 21.2 70.2 31 3.7 38.7
21:55 1011 29.85 841 24.83 21.1 69.9 31 3.5 38.4
22:00 1011 29.85 841 24.83 21.1 70 31 3.3 38
22:05 1011 29.85 841 24.83 21.5 70.7 30 3.6 38.5
22:10 1011 29.85 841 24.83 21.2 70.2 31 3.5 38.3
22:15 1011 29.85 841 24.83 21.4 70.5 30 3.3 37.9
22:20 1012 29.88 841 24.83 21.8 71.3 31 4.2 39.5
22:25 1012 29.88 841 24.83 21.3 70.3 32 4.3 39.7
22:30 1012 29.88 841 24.83 20.9 69.7 31 3.4 38
22:35 1011 29.85 841 24.83 21.1 70.1 32 3.9 39.1
22:40 1012 29.88 841 24.83 21.2 70.2 32 3.8 38.9
22:45 1012 29.88 841 24.83 21.2 70.2 32 3.9 39
22:50 1012 29.88 841 24.83 21.3 70.3 32 4.2 39.6
22:55 1012 29.88 841 24.83 21 69.9 33 4.5 40.2
23:00 1012 29.88 841 24.83 20.6 69.1 33 4 39.1
23:05 1012 29.88 841 24.83 20.7 69.2 33 4.1 39.4
23:10 1012 29.88 841 24.83 20.3 68.6 36 4.8 40.7
23:15 1012 29.88 841 24.83 19.8 67.6 37 5 41
23:20 1012 29.88 841 24.83 19.5 67.1 39 5.2 41.4
23:25 1012 29.88 841 24.83 19.3 66.7 39 5.3 41.5
23:30 1012 29.88 841 24.83 19.2 66.6 39 5.2 41.3
23:35 1012 29.88 842 24.86 19.3 66.8 36 4.2 39.5
23:40 1012 29.88 842 24.86 19.6 67.3 35 3.9 39
23:45 1012 29.88 841 24.83 19.8 67.6 35 4 39.3
23:50 1012 29.88 841 24.83 19.6 67.3 36 4.3 39.8
23:55 1012 29.88 841 24.83 19.2 66.6 38 4.8 40.6
24:00 1012 29.88 841 24.83 19.2 66.5 38 4.7 40.4